sensor_id;sensor_type;location;lat;lon;timestamp;temperature;humidity
24426;DHT22;12611;44.446;26.000;2024-03-02T00:01:17;12.20;85.00
24426;DHT22;12611;44.446;26.000;2024-03-02T00:03:46;12.20;85.00
24426;DHT22;12611;44.446;26.000;2024-03-02T00:06:16;12.30;85.00
24426;DHT22;12611;44.446;26.000;2024-03-02T00:08:48;12.20;85.10
24426;DHT22;12611;44.446;26.000;2024-03-02T00:11:18;12.20;85.20
24426;DHT22;12611;44.446;26.000;2024-03-02T00:13:47;12.20;85.60
24426;DHT22;12611;44.446;26.000;2024-03-02T00:16:16;12.20;85.50
24426;DHT22;12611;44.446;26.000;2024-03-02T00:18:45;12.10;86.10
24426;DHT22;12611;44.446;26.000;2024-03-02T00:21:14;12.10;86.30
24426;DHT22;12611;44.446;26.000;2024-03-02T00:23:48;12.10;86.30
24426;DHT22;12611;44.446;26.000;2024-03-02T00:26:20;12.10;86.40
24426;DHT22;12611;44.446;26.000;2024-03-02T00:28:49;12.00;86.50
24426;DHT22;12611;44.446;26.000;2024-03-02T00:31:20;12.10;86.50
24426;DHT22;12611;44.446;26.000;2024-03-02T00:33:49;12.10;86.40
24426;DHT22;12611;44.446;26.000;2024-03-02T00:36:24;12.10;86.30
24426;DHT22;12611;44.446;26.000;2024-03-02T00:38:54;12.10;86.40
24426;DHT22;12611;44.446;26.000;2024-03-02T00:41:27;12.10;86.40
24426;DHT22;12611;44.446;26.000;2024-03-02T00:43:58;12.00;86.70
24426;DHT22;12611;44.446;26.000;2024-03-02T00:46:29;12.00;86.60
24426;DHT22;12611;44.446;26.000;2024-03-02T00:48:59;12.00;86.60
24426;DHT22;12611;44.446;26.000;2024-03-02T00:51:30;12.00;86.60
24426;DHT22;12611;44.446;26.000;2024-03-02T00:53:59;12.00;86.60
24426;DHT22;12611;44.446;26.000;2024-03-02T00:56:30;11.90;86.60
24426;DHT22;12611;44.446;26.000;2024-03-02T00:58:59;11.90;86.60
24426;DHT22;12611;44.446;26.000;2024-03-02T01:01:28;11.90;86.70
24426;DHT22;12611;44.446;26.000;2024-03-02T01:03:56;11.90;86.60
24426;DHT22;12611;44.446;26.000;2024-03-02T01:06:25;11.90;86.70
24426;DHT22;12611;44.446;26.000;2024-03-02T01:08:54;11.90;86.90
24426;DHT22;12611;44.446;26.000;2024-03-02T01:11:23;11.90;86.90
24426;DHT22;12611;44.446;26.000;2024-03-02T01:13:53;11.90;86.70
24426;DHT22;12611;44.446;26.000;2024-03-02T01:16:25;11.90;86.60
24426;DHT22;12611;44.446;26.000;2024-03-02T01:18:54;11.90;86.50
24426;DHT22;12611;44.446;26.000;2024-03-02T01:21:22;11.90;86.50
24426;DHT22;12611;44.446;26.000;2024-03-02T01:23:51;11.90;86.40
24426;DHT22;12611;44.446;26.000;2024-03-02T01:26:20;11.90;86.30
24426;DHT22;12611;44.446;26.000;2024-03-02T01:28:49;11.90;86.30
24426;DHT22;12611;44.446;26.000;2024-03-02T01:31:19;11.90;86.30
24426;DHT22;12611;44.446;26.000;2024-03-02T01:33:48;11.90;86.30
24426;DHT22;12611;44.446;26.000;2024-03-02T01:36:16;11.80;86.20
24426;DHT22;12611;44.446;26.000;2024-03-02T01:38:45;11.80;86.10
24426;DHT22;12611;44.446;26.000;2024-03-02T01:41:14;11.80;86.30
24426;DHT22;12611;44.446;26.000;2024-03-02T01:43:43;11.80;86.30
24426;DHT22;12611;44.446;26.000;2024-03-02T01:46:11;11.80;86.30
24426;DHT22;12611;44.446;26.000;2024-03-02T01:48:41;11.80;86.30
24426;DHT22;12611;44.446;26.000;2024-03-02T01:51:10;11.80;86.40
24426;DHT22;12611;44.446;26.000;2024-03-02T01:53:39;11.70;86.30
24426;DHT22;12611;44.446;26.000;2024-03-02T01:56:08;11.70;86.60
24426;DHT22;12611;44.446;26.000;2024-03-02T01:58:36;11.70;86.70
24426;DHT22;12611;44.446;26.000;2024-03-02T02:01:05;11.60;86.70
24426;DHT22;12611;44.446;26.000;2024-03-02T02:03:34;11.60;86.80
24426;DHT22;12611;44.446;26.000;2024-03-02T02:06:05;11.60;86.60
24426;DHT22;12611;44.446;26.000;2024-03-02T02:08:52;11.60;86.50
24426;DHT22;12611;44.446;26.000;2024-03-02T02:11:20;11.60;86.80
24426;DHT22;12611;44.446;26.000;2024-03-02T02:13:49;11.60;86.60
24426;DHT22;12611;44.446;26.000;2024-03-02T02:16:18;11.60;86.80
24426;DHT22;12611;44.446;26.000;2024-03-02T02:18:46;11.60;86.60
24426;DHT22;12611;44.446;26.000;2024-03-02T02:21:17;11.50;86.70
24426;DHT22;12611;44.446;26.000;2024-03-02T02:23:47;11.50;86.80
24426;DHT22;12611;44.446;26.000;2024-03-02T02:26:15;11.40;86.80
24426;DHT22;12611;44.446;26.000;2024-03-02T02:28:45;11.40;87.10
24426;DHT22;12611;44.446;26.000;2024-03-02T02:31:14;11.40;87.00
24426;DHT22;12611;44.446;26.000;2024-03-02T02:33:43;11.40;87.40
24426;DHT22;12611;44.446;26.000;2024-03-02T02:36:12;11.30;87.50
24426;DHT22;12611;44.446;26.000;2024-03-02T02:38:46;11.30;88.10
24426;DHT22;12611;44.446;26.000;2024-03-02T02:41:18;11.30;88.00
24426;DHT22;12611;44.446;26.000;2024-03-02T02:43:47;11.30;87.90
24426;DHT22;12611;44.446;26.000;2024-03-02T02:46:15;11.30;87.90
24426;DHT22;12611;44.446;26.000;2024-03-02T02:48:44;11.30;87.70
24426;DHT22;12611;44.446;26.000;2024-03-02T02:51:13;11.30;87.50
24426;DHT22;12611;44.446;26.000;2024-03-02T02:53:42;11.30;87.40
24426;DHT22;12611;44.446;26.000;2024-03-02T02:56:10;11.30;87.60
24426;DHT22;12611;44.446;26.000;2024-03-02T02:58:41;11.30;87.80
24426;DHT22;12611;44.446;26.000;2024-03-02T03:01:10;11.30;88.20
24426;DHT22;12611;44.446;26.000;2024-03-02T03:03:39;11.30;88.00
24426;DHT22;12611;44.446;26.000;2024-03-02T03:06:07;11.30;87.80
24426;DHT22;12611;44.446;26.000;2024-03-02T03:08:36;11.30;87.70
24426;DHT22;12611;44.446;26.000;2024-03-02T03:11:05;11.20;87.70
24426;DHT22;12611;44.446;26.000;2024-03-02T03:13:34;11.20;87.70
24426;DHT22;12611;44.446;26.000;2024-03-02T03:16:05;11.20;87.70
24426;DHT22;12611;44.446;26.000;2024-03-02T03:18:34;11.20;87.70
24426;DHT22;12611;44.446;26.000;2024-03-02T03:21:03;11.20;87.70
24426;DHT22;12611;44.446;26.000;2024-03-02T03:23:32;11.20;87.50
24426;DHT22;12611;44.446;26.000;2024-03-02T03:26:00;11.20;87.60
24426;DHT22;12611;44.446;26.000;2024-03-02T03:28:30;11.10;88.10
24426;DHT22;12611;44.446;26.000;2024-03-02T03:30:58;11.10;88.00
24426;DHT22;12611;44.446;26.000;2024-03-02T03:33:28;11.10;88.00
24426;DHT22;12611;44.446;26.000;2024-03-02T03:35:57;11.10;88.00
24426;DHT22;12611;44.446;26.000;2024-03-02T03:38:26;11.00;88.00
24426;DHT22;12611;44.446;26.000;2024-03-02T03:40:54;11.00;88.10
24426;DHT22;12611;44.446;26.000;2024-03-02T03:43:23;10.90;88.10
24426;DHT22;12611;44.446;26.000;2024-03-02T03:45:51;10.90;88.10
24426;DHT22;12611;44.446;26.000;2024-03-02T03:48:20;10.90;88.00
24426;DHT22;12611;44.446;26.000;2024-03-02T03:50:50;10.90;88.10
24426;DHT22;12611;44.446;26.000;2024-03-02T03:53:19;10.90;88.00
24426;DHT22;12611;44.446;26.000;2024-03-02T03:55:47;10.90;88.00
24426;DHT22;12611;44.446;26.000;2024-03-02T03:58:17;10.90;88.00
24426;DHT22;12611;44.446;26.000;2024-03-02T04:00:49;10.90;87.80
24426;DHT22;12611;44.446;26.000;2024-03-02T04:03:18;10.80;87.90
24426;DHT22;12611;44.446;26.000;2024-03-02T04:05:46;10.90;88.00
24426;DHT22;12611;44.446;26.000;2024-03-02T04:08:16;10.90;87.80
24426;DHT22;12611;44.446;26.000;2024-03-02T04:10:45;10.90;87.50
24426;DHT22;12611;44.446;26.000;2024-03-02T04:13:14;10.90;87.40
24426;DHT22;12611;44.446;26.000;2024-03-02T04:15:42;10.80;87.30
24426;DHT22;12611;44.446;26.000;2024-03-02T04:18:11;10.80;87.20
24426;DHT22;12611;44.446;26.000;2024-03-02T04:20:40;10.80;87.20
24426;DHT22;12611;44.446;26.000;2024-03-02T04:23:08;10.80;87.20
24426;DHT22;12611;44.446;26.000;2024-03-02T04:25:38;10.80;87.10
24426;DHT22;12611;44.446;26.000;2024-03-02T04:28:07;10.80;87.10
24426;DHT22;12611;44.446;26.000;2024-03-02T04:30:35;10.80;87.80
24426;DHT22;12611;44.446;26.000;2024-03-02T04:33:04;10.80;86.80
24426;DHT22;12611;44.446;26.000;2024-03-02T04:35:37;10.80;86.70
24426;DHT22;12611;44.446;26.000;2024-03-02T04:38:05;10.80;86.80
24426;DHT22;12611;44.446;26.000;2024-03-02T04:40:34;10.80;86.70
24426;DHT22;12611;44.446;26.000;2024-03-02T04:43:04;10.80;86.70
24426;DHT22;12611;44.446;26.000;2024-03-02T04:45:33;10.80;86.50
24426;DHT22;12611;44.446;26.000;2024-03-02T04:48:02;10.80;86.40
24426;DHT22;12611;44.446;26.000;2024-03-02T04:50:30;10.80;86.40
24426;DHT22;12611;44.446;26.000;2024-03-02T04:52:59;10.80;86.40
24426;DHT22;12611;44.446;26.000;2024-03-02T04:55:28;10.70;86.30
24426;DHT22;12611;44.446;26.000;2024-03-02T04:58:26;10.70;86.40
24426;DHT22;12611;44.446;26.000;2024-03-02T05:00:55;10.70;86.40
24426;DHT22;12611;44.446;26.000;2024-03-02T05:03:24;10.70;86.40
24426;DHT22;12611;44.446;26.000;2024-03-02T05:05:52;10.70;87.20
24426;DHT22;12611;44.446;26.000;2024-03-02T05:08:21;10.70;86.30
24426;DHT22;12611;44.446;26.000;2024-03-02T05:10:50;10.70;86.30
24426;DHT22;12611;44.446;26.000;2024-03-02T05:13:19;10.70;87.20
24426;DHT22;12611;44.446;26.000;2024-03-02T05:15:49;10.70;86.40
24426;DHT22;12611;44.446;26.000;2024-03-02T05:18:18;10.60;86.30
24426;DHT22;12611;44.446;26.000;2024-03-02T05:20:47;10.60;86.40
24426;DHT22;12611;44.446;26.000;2024-03-02T05:23:16;10.60;86.40
24426;DHT22;12611;44.446;26.000;2024-03-02T05:25:44;10.60;86.40
24426;DHT22;12611;44.446;26.000;2024-03-02T05:28:13;10.70;86.50
24426;DHT22;12611;44.446;26.000;2024-03-02T05:30:42;10.70;86.40
24426;DHT22;12611;44.446;26.000;2024-03-02T05:33:13;10.70;86.40
24426;DHT22;12611;44.446;26.000;2024-03-02T05:35:42;10.70;86.30
24426;DHT22;12611;44.446;26.000;2024-03-02T05:38:12;10.70;86.20
24426;DHT22;12611;44.446;26.000;2024-03-02T05:40:40;10.70;86.20
24426;DHT22;12611;44.446;26.000;2024-03-02T05:43:09;10.70;86.10
24426;DHT22;12611;44.446;26.000;2024-03-02T05:45:39;10.80;86.10
24426;DHT22;12611;44.446;26.000;2024-03-02T05:48:08;10.80;86.10
24426;DHT22;12611;44.446;26.000;2024-03-02T05:50:39;10.80;86.00
24426;DHT22;12611;44.446;26.000;2024-03-02T05:53:07;10.80;86.00
24426;DHT22;12611;44.446;26.000;2024-03-02T05:55:36;10.90;86.00
24426;DHT22;12611;44.446;26.000;2024-03-02T05:58:05;10.90;85.90
24426;DHT22;12611;44.446;26.000;2024-03-02T06:00:50;10.90;85.90
24426;DHT22;12611;44.446;26.000;2024-03-02T06:03:19;11.00;85.80
24426;DHT22;12611;44.446;26.000;2024-03-02T06:05:49;10.90;85.50
24426;DHT22;12611;44.446;26.000;2024-03-02T06:08:18;11.00;85.80
24426;DHT22;12611;44.446;26.000;2024-03-02T06:10:46;11.00;85.70
24426;DHT22;12611;44.446;26.000;2024-03-02T06:13:15;11.10;85.50
24426;DHT22;12611;44.446;26.000;2024-03-02T06:15:44;11.10;85.50
24426;DHT22;12611;44.446;26.000;2024-03-02T06:18:13;11.10;85.40
24426;DHT22;12611;44.446;26.000;2024-03-02T06:20:42;11.20;85.50
24426;DHT22;12611;44.446;26.000;2024-03-02T06:23:12;11.20;85.30
24426;DHT22;12611;44.446;26.000;2024-03-02T06:25:40;11.20;85.20
24426;DHT22;12611;44.446;26.000;2024-03-02T06:28:09;11.20;85.60
24426;DHT22;12611;44.446;26.000;2024-03-02T06:30:37;11.30;85.20
24426;DHT22;12611;44.446;26.000;2024-03-02T06:33:06;11.30;85.30
24426;DHT22;12611;44.446;26.000;2024-03-02T06:35:35;11.40;85.30
24426;DHT22;12611;44.446;26.000;2024-03-02T06:38:04;11.40;84.60
24426;DHT22;12611;44.446;26.000;2024-03-02T06:40:34;11.40;84.60
24426;DHT22;12611;44.446;26.000;2024-03-02T06:43:04;11.50;84.60
24426;DHT22;12611;44.446;26.000;2024-03-02T06:45:33;11.50;84.10
24426;DHT22;12611;44.446;26.000;2024-03-02T06:48:02;11.50;83.80
24426;DHT22;12611;44.446;26.000;2024-03-02T06:50:31;11.50;83.40
24426;DHT22;12611;44.446;26.000;2024-03-02T06:53:00;11.60;83.50
24426;DHT22;12611;44.446;26.000;2024-03-02T06:55:31;11.60;83.10
24426;DHT22;12611;44.446;26.000;2024-03-02T06:58:01;11.70;83.30
24426;DHT22;12611;44.446;26.000;2024-03-02T07:00:30;11.80;83.50
24426;DHT22;12611;44.446;26.000;2024-03-02T07:02:59;11.80;83.50
24426;DHT22;12611;44.446;26.000;2024-03-02T07:05:27;11.90;83.50
24426;DHT22;12611;44.446;26.000;2024-03-02T07:07:56;12.00;83.50
24426;DHT22;12611;44.446;26.000;2024-03-02T07:10:25;12.00;83.00
24426;DHT22;12611;44.446;26.000;2024-03-02T07:12:53;12.10;82.70
24426;DHT22;12611;44.446;26.000;2024-03-02T07:15:23;12.10;82.70
24426;DHT22;12611;44.446;26.000;2024-03-02T07:18:10;12.20;82.70
24426;DHT22;12611;44.446;26.000;2024-03-02T07:20:39;12.30;82.60
24426;DHT22;12611;44.446;26.000;2024-03-02T07:23:07;12.30;81.90
24426;DHT22;12611;44.446;26.000;2024-03-02T07:25:36;12.30;81.60
24426;DHT22;12611;44.446;26.000;2024-03-02T07:28:09;12.40;81.90
24426;DHT22;12611;44.446;26.000;2024-03-02T07:30:39;12.50;81.60
24426;DHT22;12611;44.446;26.000;2024-03-02T07:33:08;12.50;81.10
24426;DHT22;12611;44.446;26.000;2024-03-02T07:35:37;12.60;81.10
24426;DHT22;12611;44.446;26.000;2024-03-02T07:38:05;12.60;81.10
24426;DHT22;12611;44.446;26.000;2024-03-02T07:40:34;12.70;81.50
24426;DHT22;12611;44.446;26.000;2024-03-02T07:43:03;12.80;81.50
24426;DHT22;12611;44.446;26.000;2024-03-02T07:45:31;12.80;80.70
24426;DHT22;12611;44.446;26.000;2024-03-02T07:48:02;12.90;81.00
24426;DHT22;12611;44.446;26.000;2024-03-02T07:50:31;12.90;80.60
24426;DHT22;12611;44.446;26.000;2024-03-02T07:53:02;13.00;80.60
24426;DHT22;12611;44.446;26.000;2024-03-02T07:55:31;13.10;80.70
24426;DHT22;12611;44.446;26.000;2024-03-02T07:58:00;13.10;80.20
24426;DHT22;12611;44.446;26.000;2024-03-02T08:00:29;13.20;80.10
24426;DHT22;12611;44.446;26.000;2024-03-02T08:02:58;13.30;79.70
24426;DHT22;12611;44.446;26.000;2024-03-02T08:05:28;13.30;79.40
24426;DHT22;12611;44.446;26.000;2024-03-02T08:07:57;13.40;79.30
24426;DHT22;12611;44.446;26.000;2024-03-02T08:10:25;13.40;79.30
24426;DHT22;12611;44.446;26.000;2024-03-02T08:12:54;13.50;79.30
24426;DHT22;12611;44.446;26.000;2024-03-02T08:15:23;13.50;79.40
24426;DHT22;12611;44.446;26.000;2024-03-02T08:17:52;13.60;79.30
24426;DHT22;12611;44.446;26.000;2024-03-02T08:20:20;13.60;78.80
24426;DHT22;12611;44.446;26.000;2024-03-02T08:22:51;13.70;78.70
24426;DHT22;12611;44.446;26.000;2024-03-02T08:25:22;13.70;78.80
24426;DHT22;12611;44.446;26.000;2024-03-02T08:27:50;13.70;78.40
24426;DHT22;12611;44.446;26.000;2024-03-02T08:30:19;13.80;78.20
24426;DHT22;12611;44.446;26.000;2024-03-02T08:32:48;13.90;78.00
24426;DHT22;12611;44.446;26.000;2024-03-02T08:35:17;13.90;78.00
24426;DHT22;12611;44.446;26.000;2024-03-02T08:37:46;13.90;78.20
24426;DHT22;12611;44.446;26.000;2024-03-02T08:40:16;14.00;78.20
24426;DHT22;12611;44.446;26.000;2024-03-02T08:42:46;14.00;77.70
24426;DHT22;12611;44.446;26.000;2024-03-02T08:45:15;14.00;77.30
24426;DHT22;12611;44.446;26.000;2024-03-02T08:47:44;14.00;77.30
24426;DHT22;12611;44.446;26.000;2024-03-02T08:50:13;14.10;77.50
24426;DHT22;12611;44.446;26.000;2024-03-02T08:52:42;14.20;77.30
24426;DHT22;12611;44.446;26.000;2024-03-02T08:55:10;14.20;77.40
24426;DHT22;12611;44.446;26.000;2024-03-02T08:57:41;14.20;77.20
24426;DHT22;12611;44.446;26.000;2024-03-02T09:00:11;14.30;77.00
24426;DHT22;12611;44.446;26.000;2024-03-02T09:02:39;14.30;77.00
24426;DHT22;12611;44.446;26.000;2024-03-02T09:05:08;14.40;77.20
24426;DHT22;12611;44.446;26.000;2024-03-02T09:07:37;14.30;76.40
24426;DHT22;12611;44.446;26.000;2024-03-02T09:10:07;14.30;76.40
24426;DHT22;12611;44.446;26.000;2024-03-02T09:12:36;14.40;76.80
24426;DHT22;12611;44.446;26.000;2024-03-02T09:15:08;14.50;76.90
24426;DHT22;12611;44.446;26.000;2024-03-02T09:17:36;14.50;76.50
24426;DHT22;12611;44.446;26.000;2024-03-02T09:20:06;14.60;76.30
24426;DHT22;12611;44.446;26.000;2024-03-02T09:22:34;14.60;75.70
24426;DHT22;12611;44.446;26.000;2024-03-02T09:25:03;14.60;75.70
24426;DHT22;12611;44.446;26.000;2024-03-02T09:27:36;14.60;76.00
24426;DHT22;12611;44.446;26.000;2024-03-02T09:30:09;14.60;76.10
24426;DHT22;12611;44.446;26.000;2024-03-02T09:32:38;14.70;76.00
24426;DHT22;12611;44.446;26.000;2024-03-02T09:35:07;14.80;76.00
24426;DHT22;12611;44.446;26.000;2024-03-02T09:37:36;14.80;75.40
24426;DHT22;12611;44.446;26.000;2024-03-02T09:40:06;14.80;75.50
24426;DHT22;12611;44.446;26.000;2024-03-02T09:42:35;14.90;75.70
24426;DHT22;12611;44.446;26.000;2024-03-02T09:45:05;14.90;75.40
24426;DHT22;12611;44.446;26.000;2024-03-02T09:47:35;14.90;75.10
24426;DHT22;12611;44.446;26.000;2024-03-02T09:50:05;15.00;75.00
24426;DHT22;12611;44.446;26.000;2024-03-02T09:52:35;15.00;74.70
24426;DHT22;12611;44.446;26.000;2024-03-02T09:55:04;15.10;75.20
24426;DHT22;12611;44.446;26.000;2024-03-02T09:57:34;15.10;73.80
24426;DHT22;12611;44.446;26.000;2024-03-02T10:00:06;15.10;73.90
24426;DHT22;12611;44.446;26.000;2024-03-02T10:02:37;15.20;73.60
24426;DHT22;12611;44.446;26.000;2024-03-02T10:05:06;15.20;73.60
24426;DHT22;12611;44.446;26.000;2024-03-02T10:07:35;15.20;73.10
24426;DHT22;12611;44.446;26.000;2024-03-02T10:10:13;15.30;73.20
24426;DHT22;12611;44.446;26.000;2024-03-02T10:12:42;15.30;73.10
24426;DHT22;12611;44.446;26.000;2024-03-02T10:15:11;15.40;73.30
24426;DHT22;12611;44.446;26.000;2024-03-02T10:17:44;15.40;73.20
24426;DHT22;12611;44.446;26.000;2024-03-02T10:20:22;15.50;73.00
24426;DHT22;12611;44.446;26.000;2024-03-02T10:22:51;15.60;72.70
24426;DHT22;12611;44.446;26.000;2024-03-02T10:25:30;15.60;71.80
24426;DHT22;12611;44.446;26.000;2024-03-02T10:28:17;15.70;72.20
24426;DHT22;12611;44.446;26.000;2024-03-02T10:30:47;15.70;71.70
24426;DHT22;12611;44.446;26.000;2024-03-02T10:33:20;15.80;71.60
24426;DHT22;12611;44.446;26.000;2024-03-02T10:35:49;15.90;71.90
24426;DHT22;12611;44.446;26.000;2024-03-02T10:38:18;15.90;71.10
24426;DHT22;12611;44.446;26.000;2024-03-02T10:40:48;16.00;70.30
24426;DHT22;12611;44.446;26.000;2024-03-02T10:43:17;16.00;69.80
24426;DHT22;12611;44.446;26.000;2024-03-02T10:45:49;16.10;68.80
24426;DHT22;12611;44.446;26.000;2024-03-02T10:48:20;16.10;68.60
24426;DHT22;12611;44.446;26.000;2024-03-02T10:50:49;16.20;68.40
24426;DHT22;12611;44.446;26.000;2024-03-02T10:53:18;16.20;68.70
24426;DHT22;12611;44.446;26.000;2024-03-02T10:55:50;16.30;68.10
24426;DHT22;12611;44.446;26.000;2024-03-02T10:58:22;16.30;68.10
24426;DHT22;12611;44.446;26.000;2024-03-02T11:00:52;16.30;68.00
24426;DHT22;12611;44.446;26.000;2024-03-02T11:03:23;16.40;67.80
24426;DHT22;12611;44.446;26.000;2024-03-02T11:05:52;16.40;67.80
24426;DHT22;12611;44.446;26.000;2024-03-02T11:08:21;16.50;66.90
24426;DHT22;12611;44.446;26.000;2024-03-02T11:10:57;16.50;66.90
24426;DHT22;12611;44.446;26.000;2024-03-02T11:13:31;16.60;67.20
24426;DHT22;12611;44.446;26.000;2024-03-02T11:16:09;16.70;66.70
24426;DHT22;12611;44.446;26.000;2024-03-02T11:18:42;16.70;66.90
24426;DHT22;12611;44.446;26.000;2024-03-02T11:21:11;16.80;66.50
24426;DHT22;12611;44.446;26.000;2024-03-02T11:23:40;16.80;66.80
24426;DHT22;12611;44.446;26.000;2024-03-02T11:26:18;16.80;66.20
24426;DHT22;12611;44.446;26.000;2024-03-02T11:28:47;16.90;66.00
24426;DHT22;12611;44.446;26.000;2024-03-02T11:31:16;16.80;64.80
24426;DHT22;12611;44.446;26.000;2024-03-02T11:33:46;16.90;64.90
24426;DHT22;12611;44.446;26.000;2024-03-02T11:36:16;16.90;64.70
24426;DHT22;12611;44.446;26.000;2024-03-02T11:38:45;16.90;64.90
24426;DHT22;12611;44.446;26.000;2024-03-02T11:41:15;16.90;64.90
24426;DHT22;12611;44.446;26.000;2024-03-02T11:43:45;16.90;64.10
24426;DHT22;12611;44.446;26.000;2024-03-02T11:46:15;17.00;64.20
24426;DHT22;12611;44.446;26.000;2024-03-02T11:48:43;17.00;63.40
24426;DHT22;12611;44.446;26.000;2024-03-02T11:51:16;17.00;62.80
24426;DHT22;12611;44.446;26.000;2024-03-02T11:53:46;17.00;61.90
24426;DHT22;12611;44.446;26.000;2024-03-02T11:56:16;17.00;61.50
24426;DHT22;12611;44.446;26.000;2024-03-02T11:58:45;17.00;61.60
24426;DHT22;12611;44.446;26.000;2024-03-02T12:01:16;17.10;62.40
24426;DHT22;12611;44.446;26.000;2024-03-02T12:03:45;17.10;62.20
24426;DHT22;12611;44.446;26.000;2024-03-02T12:06:17;17.10;62.00
24426;DHT22;12611;44.446;26.000;2024-03-02T12:08:52;17.20;61.30
24426;DHT22;12611;44.446;26.000;2024-03-02T12:11:22;17.20;61.10
24426;DHT22;12611;44.446;26.000;2024-03-02T12:13:53;17.20;60.60
24426;DHT22;12611;44.446;26.000;2024-03-02T12:16:24;17.20;60.50
24426;DHT22;12611;44.446;26.000;2024-03-02T12:18:53;17.20;60.70
24426;DHT22;12611;44.446;26.000;2024-03-02T12:21:23;17.30;60.80
24426;DHT22;12611;44.446;26.000;2024-03-02T12:23:52;17.30;61.60
24426;DHT22;12611;44.446;26.000;2024-03-02T12:26:21;17.40;61.70
24426;DHT22;12611;44.446;26.000;2024-03-02T12:28:50;17.40;59.80
24426;DHT22;12611;44.446;26.000;2024-03-02T12:31:19;17.50;59.70
24426;DHT22;12611;44.446;26.000;2024-03-02T12:33:48;17.50;59.90
24426;DHT22;12611;44.446;26.000;2024-03-02T12:36:17;17.60;59.40
24426;DHT22;12611;44.446;26.000;2024-03-02T12:38:52;17.60;59.30
24426;DHT22;12611;44.446;26.000;2024-03-02T12:41:22;17.70;59.40
24426;DHT22;12611;44.446;26.000;2024-03-02T12:43:52;17.70;58.50
24426;DHT22;12611;44.446;26.000;2024-03-02T12:46:21;17.70;58.40
24426;DHT22;12611;44.446;26.000;2024-03-02T12:48:51;17.80;58.40
24426;DHT22;12611;44.446;26.000;2024-03-02T12:51:20;17.90;59.00
24426;DHT22;12611;44.446;26.000;2024-03-02T12:53:54;17.80;57.90
24426;DHT22;12611;44.446;26.000;2024-03-02T12:56:24;17.90;58.40
24426;DHT22;12611;44.446;26.000;2024-03-02T12:58:53;17.90;58.60
24426;DHT22;12611;44.446;26.000;2024-03-02T13:01:22;17.90;58.60
24426;DHT22;12611;44.446;26.000;2024-03-02T13:03:52;17.90;58.80
24426;DHT22;12611;44.446;26.000;2024-03-02T13:06:22;17.90;58.40
24426;DHT22;12611;44.446;26.000;2024-03-02T13:08:51;17.90;58.60
24426;DHT22;12611;44.446;26.000;2024-03-02T13:11:22;17.90;58.80
24426;DHT22;12611;44.446;26.000;2024-03-02T13:13:51;17.90;59.20
24426;DHT22;12611;44.446;26.000;2024-03-02T13:16:20;18.00;59.70
24426;DHT22;12611;44.446;26.000;2024-03-02T13:18:56;18.00;59.50
24426;DHT22;12611;44.446;26.000;2024-03-02T13:21:24;18.10;59.70
24426;DHT22;12611;44.446;26.000;2024-03-02T13:23:53;18.10;59.40
24426;DHT22;12611;44.446;26.000;2024-03-02T13:26:23;18.10;58.30
24426;DHT22;12611;44.446;26.000;2024-03-02T13:28:52;18.00;56.40
24426;DHT22;12611;44.446;26.000;2024-03-02T13:31:20;17.90;56.20
24426;DHT22;12611;44.446;26.000;2024-03-02T13:33:49;17.90;57.10
24426;DHT22;12611;44.446;26.000;2024-03-02T13:36:17;17.90;57.50
24426;DHT22;12611;44.446;26.000;2024-03-02T13:38:46;17.90;57.10
24426;DHT22;12611;44.446;26.000;2024-03-02T13:41:15;18.00;57.10
24426;DHT22;12611;44.446;26.000;2024-03-02T13:43:45;18.00;57.20
24426;DHT22;12611;44.446;26.000;2024-03-02T13:46:16;18.10;57.30
24426;DHT22;12611;44.446;26.000;2024-03-02T13:48:45;18.00;56.10
24426;DHT22;12611;44.446;26.000;2024-03-02T13:51:14;18.10;56.00
24426;DHT22;12611;44.446;26.000;2024-03-02T13:53:43;18.40;56.30
24426;DHT22;12611;44.446;26.000;2024-03-02T13:56:11;18.80;55.70
24426;DHT22;12611;44.446;26.000;2024-03-02T13:58:40;19.00;55.80
24426;DHT22;12611;44.446;26.000;2024-03-02T14:01:12;19.30;54.10
24426;DHT22;12611;44.446;26.000;2024-03-02T14:03:41;19.60;54.60
24426;DHT22;12611;44.446;26.000;2024-03-02T14:06:09;19.90;53.60
24426;DHT22;12611;44.446;26.000;2024-03-02T14:08:38;20.20;53.30
24426;DHT22;12611;44.446;26.000;2024-03-02T14:11:07;20.60;53.00
24426;DHT22;12611;44.446;26.000;2024-03-02T14:13:38;21.00;52.30
24426;DHT22;12611;44.446;26.000;2024-03-02T14:16:07;21.10;52.10
24426;DHT22;12611;44.446;26.000;2024-03-02T14:18:38;21.00;51.40
24426;DHT22;12611;44.446;26.000;2024-03-02T14:21:07;20.80;50.80
24426;DHT22;12611;44.446;26.000;2024-03-02T14:23:35;20.60;50.50
24426;DHT22;12611;44.446;26.000;2024-03-02T14:26:04;20.40;50.80
24426;DHT22;12611;44.446;26.000;2024-03-02T14:28:33;20.30;51.40
24426;DHT22;12611;44.446;26.000;2024-03-02T14:31:16;20.30;51.40
24426;DHT22;12611;44.446;26.000;2024-03-02T14:33:48;20.30;51.70
24426;DHT22;12611;44.446;26.000;2024-03-02T14:36:17;20.30;51.70
24426;DHT22;12611;44.446;26.000;2024-03-02T14:38:47;20.20;51.80
24426;DHT22;12611;44.446;26.000;2024-03-02T14:41:15;20.30;51.60
24426;DHT22;12611;44.446;26.000;2024-03-02T14:43:44;20.40;51.90
24426;DHT22;12611;44.446;26.000;2024-03-02T14:46:13;20.50;51.90
24426;DHT22;12611;44.446;26.000;2024-03-02T14:48:44;20.70;51.90
24426;DHT22;12611;44.446;26.000;2024-03-02T14:51:15;20.90;51.30
24426;DHT22;12611;44.446;26.000;2024-03-02T14:53:44;20.80;50.50
24426;DHT22;12611;44.446;26.000;2024-03-02T14:56:13;20.70;51.20
24426;DHT22;12611;44.446;26.000;2024-03-02T14:58:41;20.50;49.80
24426;DHT22;12611;44.446;26.000;2024-03-02T15:01:12;20.40;50.80
24426;DHT22;12611;44.446;26.000;2024-03-02T15:03:41;20.30;51.10
24426;DHT22;12611;44.446;26.000;2024-03-02T15:06:10;20.30;51.30
24426;DHT22;12611;44.446;26.000;2024-03-02T15:08:40;20.20;51.30
24426;DHT22;12611;44.446;26.000;2024-03-02T15:11:09;20.10;51.40
24426;DHT22;12611;44.446;26.000;2024-03-02T15:13:38;20.00;51.70
24426;DHT22;12611;44.446;26.000;2024-03-02T15:16:07;19.80;51.60
24426;DHT22;12611;44.446;26.000;2024-03-02T15:18:36;19.50;51.30
24426;DHT22;12611;44.446;26.000;2024-03-02T15:21:05;19.40;51.60
24426;DHT22;12611;44.446;26.000;2024-03-02T15:23:33;19.20;51.90
24426;DHT22;12611;44.446;26.000;2024-03-02T15:26:04;19.00;52.20
24426;DHT22;12611;44.446;26.000;2024-03-02T15:28:34;18.90;52.60
24426;DHT22;12611;44.446;26.000;2024-03-02T15:31:03;18.80;53.00